MSC Susanna — 3ECU4 — position and weather

sailwx.info

Track history (hours):
 
Tides and Currents Weather Stations Pressure Air Temp Water Temp Dewpoint Dewpoint Depression Visibility Wind Speed Wind Dir Waves Ship Positions

MSC Susanna

Last reported at 2015-Jun-02 20:30 UTC. Time now 2015-Jul-03 21:58 UTC.
Position N 31°28' E 032°19'.
Warning: this ship's position is 31 days out of date.

Length 337 m; draft 15.5 m.

Type: Ship (hazmat cat A). MMSI: 371466000.

Date/timePositionNaut miles runAvg speedWind from/ knotsBaromVisibWave heightAir tempDewpointWater temp
2015-Jun-02 20:30N 31°28' E 032°19'81 6.1
2015-Jun-02 07:13N 32°09' E 030°56'38815.6
2015-Jun-01 06:20N 34°39' E 023°48'1215.4
2015-Jun-01 05:33N 34°44' E 023°35'42015.6
2015-May-31 02:32N 37°50' E 015°47'1414.3
2015-May-31 01:33N 37°58' E 015°33'1716.7
2015-May-31 00:33N 38°15' E 015°37'1515.1
2015-May-30 23:33N 38°26' E 015°51'3 3.3
2015-May-30 22:32N 38°27' E 015°54'0 0.0
2015-May-30 21:28N 38°27' E 015°54'0 0.0
2015-May-30 20:31N 38°27' E 015°54'0 0.0
2015-May-30 19:31N 38°27' E 015°54'0 0.0
2015-May-30 18:25N 38°27' E 015°54'0 0.0
2015-May-30 17:31N 38°27' E 015°54'0 0.0
2015-May-30 16:31N 38°27' E 015°54'0 0.0
2015-May-30 15:34N 38°27' E 015°54'0 0.0
2015-May-30 14:30N 38°27' E 015°54'0 0.0
2015-May-30 13:33N 38°27' E 015°54'0 0.0
2015-May-30 12:21N 38°27' E 015°54'0 0.0
2015-May-30 11:33N 38°27' E 015°54'0 0.0
2015-May-30 03:03N 38°27' E 015°54'0 0.0
2015-May-30 02:33N 38°27' E 015°54'0 0.0
2015-May-30 01:33N 38°27' E 015°54'0 0.0
2015-May-30 00:30N 38°27' E 015°54'0 0.0
2015-May-29 23:33N 38°27' E 015°54'0 0.0
2015-May-29 22:33N 38°27' E 015°54'106 6.2
2015-May-29 05:33N 38°19' E 013°40'1313.1
2015-May-29 04:33N 38°19' E 013°23'3913.0
2015-May-29 01:33N 38°18' E 012°33'1312.9
2015-May-29 00:31N 38°19' E 012°16'8313.1
2015-May-28 18:12N 38°11' E 010°32'813.0
2015-May-28 17:33N 38°10' E 010°21'1813.3
2015-May-28 16:10N 38°08' E 009°58'813.4
2015-May-28 15:33N 38°06' E 009°47'1313.3
2015-May-28 14:32N 38°04' E 009°30'1313.1
2015-May-28 13:34N 38°01' E 009°15'1312.9
2015-May-28 12:32N 37°58' E 008°58'2713.0
2015-May-28 10:28N 37°55' E 008°24'36614.1
2015-May-27 08:30N 36°50' E 000°51'1 0.8
2015-May-27 07:21N 36°49' E 000°51'4 4.7
2015-May-27 06:33N 36°48' E 000°46'1515.2
2015-May-27 05:33N 36°42' E 000°29'1616.2
2015-May-27 04:33N 36°34' E 000°11'1616.2
2015-May-27 03:33N 36°26' W 000°06'1615.7
2015-May-27 02:33N 36°21' W 000°25'1515.1
2015-May-27 01:33N 36°19' W 000°43'1515.1
2015-May-27 00:33N 36°18' W 001°02'1515.2
2015-May-26 23:33N 36°16' W 001°21'1915.5
2015-May-26 22:19N 36°15' W 001°44'1215.7
2015-May-26 21:34N 36°14' W 001°59'1615.5
2015-May-26 20:33N 36°12' W 002°18'1515.6
2015-May-26 19:33N 36°11' W 002°37'1615.8
2015-May-26 18:33N 36°10' W 002°57'11514.4
2015-May-26 10:33N 35°59' W 005°19'5015.4
2015-May-26 07:17N 35°56' W 006°21'6813.1
2015-May-26 02:06N 36°13' W 007°42'713.1
2015-May-26 01:33N 36°15' W 007°51'1313.2
2015-May-26 00:33N 36°19' W 008°06'1313.1
2015-May-25 23:33N 36°22' W 008°22'1313.1
2015-May-25 22:33N 36°25' W 008°38'1312.9
2015-May-25 21:33N 36°29' W 008°53'1313.3
2015-May-25 20:33N 36°32' W 009°09'1312.9
2015-May-25 19:33N 36°39' W 009°23'1313.1
2015-May-25 18:33N 36°49' W 009°33'1413.5
2015-May-25 17:33N 37°02' W 009°37'1312.9
2015-May-25 16:33N 37°15' W 009°41'1313.0
2015-May-25 15:33N 37°28' W 009°44'1313.0
2015-May-25 14:33N 37°40' W 009°48'1313.1
2015-May-25 13:33N 37°53' W 009°52'1313.0
2015-May-25 12:33N 38°06' W 009°56'1313.0
2015-May-25 11:33N 38°18' W 009°59'1413.5
2015-May-25 10:33N 38°31' W 010°03'1413.5
2015-May-25 09:33N 38°45' W 010°06'1313.4
2015-May-25 08:33N 38°58' W 010°07'1313.1
2015-May-25 07:33N 39°11' W 010°06'1313.4
2015-May-25 06:33N 39°25' W 010°06'1313.4
2015-May-25 05:33N 39°38' W 010°06'1313.2
2015-May-25 04:34N 39°51' W 010°06'1313.2
2015-May-25 03:34N 40°04' W 010°06'1413.4
2015-May-25 02:32N 40°18' W 010°06'2713.5
2015-May-25 00:33N 40°45' W 010°06'  
Track history (hours):
 
Tides and Currents Weather Stations Pressure Air Temp Water Temp Dewpoint Dewpoint Depression Visibility Wind Speed Wind Dir Waves Ship Positions

MSC Susanna

Last reported at 2015-Jun-02 20:30 UTC. Time now 2015-Jul-03 21:58 UTC.
Position N 31°28' E 032°19'.
Warning: this ship's position is 31 days out of date.

Length 337 m; draft 15.5 m.

Type: Ship (hazmat cat A). MMSI: 371466000.

Date/timePositionNaut miles runAvg speedWind from/ knotsBaromVisibWave heightAir tempDewpointWater temp
2015-Jun-02 20:30N 31°28' E 032°19'81 6.1
2015-Jun-02 07:13N 32°09' E 030°56'38815.6
2015-Jun-01 06:20N 34°39' E 023°48'1215.4
2015-Jun-01 05:33N 34°44' E 023°35'42015.6
2015-May-31 02:32N 37°50' E 015°47'1414.3
2015-May-31 01:33N 37°58' E 015°33'1716.7
2015-May-31 00:33N 38°15' E 015°37'1515.1
2015-May-30 23:33N 38°26' E 015°51'3 3.3
2015-May-30 22:32N 38°27' E 015°54'0 0.0
2015-May-30 21:28N 38°27' E 015°54'0 0.0
2015-May-30 20:31N 38°27' E 015°54'0 0.0
2015-May-30 19:31N 38°27' E 015°54'0 0.0
2015-May-30 18:25N 38°27' E 015°54'0 0.0
2015-May-30 17:31N 38°27' E 015°54'0 0.0
2015-May-30 16:31N 38°27' E 015°54'0 0.0
2015-May-30 15:34N 38°27' E 015°54'0 0.0
2015-May-30 14:30N 38°27' E 015°54'0 0.0
2015-May-30 13:33N 38°27' E 015°54'0 0.0
2015-May-30 12:21N 38°27' E 015°54'0 0.0
2015-May-30 11:33N 38°27' E 015°54'0 0.0
2015-May-30 03:03N 38°27' E 015°54'0 0.0
2015-May-30 02:33N 38°27' E 015°54'0 0.0
2015-May-30 01:33N 38°27' E 015°54'0 0.0
2015-May-30 00:30N 38°27' E 015°54'0 0.0
2015-May-29 23:33N 38°27' E 015°54'0 0.0
2015-May-29 22:33N 38°27' E 015°54'106 6.2
2015-May-29 05:33N 38°19' E 013°40'1313.1
2015-May-29 04:33N 38°19' E 013°23'3913.0
2015-May-29 01:33N 38°18' E 012°33'1312.9
2015-May-29 00:31N 38°19' E 012°16'8313.1
2015-May-28 18:12N 38°11' E 010°32'813.0
2015-May-28 17:33N 38°10' E 010°21'1813.3
2015-May-28 16:10N 38°08' E 009°58'813.4
2015-May-28 15:33N 38°06' E 009°47'1313.3
2015-May-28 14:32N 38°04' E 009°30'1313.1
2015-May-28 13:34N 38°01' E 009°15'1312.9
2015-May-28 12:32N 37°58' E 008°58'2713.0
2015-May-28 10:28N 37°55' E 008°24'36614.1
2015-May-27 08:30N 36°50' E 000°51'1 0.8
2015-May-27 07:21N 36°49' E 000°51'4 4.7
2015-May-27 06:33N 36°48' E 000°46'1515.2
2015-May-27 05:33N 36°42' E 000°29'1616.2
2015-May-27 04:33N 36°34' E 000°11'1616.2
2015-May-27 03:33N 36°26' W 000°06'1615.7
2015-May-27 02:33N 36°21' W 000°25'1515.1
2015-May-27 01:33N 36°19' W 000°43'1515.1
2015-May-27 00:33N 36°18' W 001°02'1515.2
2015-May-26 23:33N 36°16' W 001°21'1915.5
2015-May-26 22:19N 36°15' W 001°44'1215.7
2015-May-26 21:34N 36°14' W 001°59'1615.5
2015-May-26 20:33N 36°12' W 002°18'1515.6
2015-May-26 19:33N 36°11' W 002°37'1615.8
2015-May-26 18:33N 36°10' W 002°57'11514.4
2015-May-26 10:33N 35°59' W 005°19'5015.4
2015-May-26 07:17N 35°56' W 006°21'6813.1
2015-May-26 02:06N 36°13' W 007°42'713.1
2015-May-26 01:33N 36°15' W 007°51'1313.2
2015-May-26 00:33N 36°19' W 008°06'1313.1
2015-May-25 23:33N 36°22' W 008°22'1313.1
2015-May-25 22:33N 36°25' W 008°38'1312.9
2015-May-25 21:33N 36°29' W 008°53'1313.3
2015-May-25 20:33N 36°32' W 009°09'1312.9
2015-May-25 19:33N 36°39' W 009°23'1313.1
2015-May-25 18:33N 36°49' W 009°33'1413.5
2015-May-25 17:33N 37°02' W 009°37'1312.9
2015-May-25 16:33N 37°15' W 009°41'1313.0
2015-May-25 15:33N 37°28' W 009°44'1313.0
2015-May-25 14:33N 37°40' W 009°48'1313.1
2015-May-25 13:33N 37°53' W 009°52'1313.0
2015-May-25 12:33N 38°06' W 009°56'1313.0
2015-May-25 11:33N 38°18' W 009°59'1413.5
2015-May-25 10:33N 38°31' W 010°03'1413.5
2015-May-25 09:33N 38°45' W 010°06'1313.4
2015-May-25 08:33N 38°58' W 010°07'1313.1
2015-May-25 07:33N 39°11' W 010°06'1313.4
2015-May-25 06:33N 39°25' W 010°06'1313.4
2015-May-25 05:33N 39°38' W 010°06'1313.2
2015-May-25 04:34N 39°51' W 010°06'1313.2
2015-May-25 03:34N 40°04' W 010°06'1413.4
2015-May-25 02:32N 40°18' W 010°06'2713.5
2015-May-25 00:33N 40°45' W 010°06'  

Dump ship's entire track history